sensor_id;sensor_type;location;lat;lon;timestamp;temperature;humidity
1347;DHT22;667;48.796;9.480;2024-01-25T00:00:41;12.00;69.50
1347;DHT22;667;48.796;9.480;2024-01-25T00:03:06;12.00;69.50
1347;DHT22;667;48.796;9.480;2024-01-25T00:05:32;12.00;69.50
1347;DHT22;667;48.796;9.480;2024-01-25T00:07:57;12.00;69.50
1347;DHT22;667;48.796;9.480;2024-01-25T00:10:23;12.00;69.40
1347;DHT22;667;48.796;9.480;2024-01-25T00:12:48;12.10;69.50
1347;DHT22;667;48.796;9.480;2024-01-25T00:15:14;12.10;69.60
1347;DHT22;667;48.796;9.480;2024-01-25T00:17:40;12.10;69.70
1347;DHT22;667;48.796;9.480;2024-01-25T00:20:08;12.10;69.90
1347;DHT22;667;48.796;9.480;2024-01-25T00:22:34;12.10;69.90
1347;DHT22;667;48.796;9.480;2024-01-25T00:25:00;12.10;70.00
1347;DHT22;667;48.796;9.480;2024-01-25T00:27:25;12.10;70.10
1347;DHT22;667;48.796;9.480;2024-01-25T00:29:51;12.10;70.20
1347;DHT22;667;48.796;9.480;2024-01-25T00:32:16;12.10;70.30
1347;DHT22;667;48.796;9.480;2024-01-25T00:34:42;12.10;70.30
1347;DHT22;667;48.796;9.480;2024-01-25T00:37:08;12.10;70.40
1347;DHT22;667;48.796;9.480;2024-01-25T00:39:34;12.10;70.50
1347;DHT22;667;48.796;9.480;2024-01-25T00:42:04;12.10;70.60
1347;DHT22;667;48.796;9.480;2024-01-25T00:44:31;12.10;70.70
1347;DHT22;667;48.796;9.480;2024-01-25T00:46:56;12.20;70.90
1347;DHT22;667;48.796;9.480;2024-01-25T00:49:22;12.20;71.00
1347;DHT22;667;48.796;9.480;2024-01-25T00:51:48;12.20;71.00
1347;DHT22;667;48.796;9.480;2024-01-25T00:54:16;12.20;71.00
1347;DHT22;667;48.796;9.480;2024-01-25T00:56:41;12.20;71.00
1347;DHT22;667;48.796;9.480;2024-01-25T00:59:07;12.20;71.00
1347;DHT22;667;48.796;9.480;2024-01-25T01:01:33;12.20;71.00
1347;DHT22;667;48.796;9.480;2024-01-25T01:03:59;12.20;71.10
1347;DHT22;667;48.796;9.480;2024-01-25T01:06:26;12.20;71.20
1347;DHT22;667;48.796;9.480;2024-01-25T01:08:52;12.20;71.30
1347;DHT22;667;48.796;9.480;2024-01-25T01:11:18;12.20;71.40
1347;DHT22;667;48.796;9.480;2024-01-25T01:13:44;12.20;71.50
1347;DHT22;667;48.796;9.480;2024-01-25T01:16:09;12.20;71.60
1347;DHT22;667;48.796;9.480;2024-01-25T01:18:35;12.20;71.70
1347;DHT22;667;48.796;9.480;2024-01-25T01:21:00;12.20;71.80
1347;DHT22;667;48.796;9.480;2024-01-25T01:23:26;12.20;72.00
1347;DHT22;667;48.796;9.480;2024-01-25T01:25:51;12.20;72.00
1347;DHT22;667;48.796;9.480;2024-01-25T01:28:17;12.20;72.20
1347;DHT22;667;48.796;9.480;2024-01-25T01:30:43;12.20;72.30
1347;DHT22;667;48.796;9.480;2024-01-25T01:33:08;12.20;72.40
1347;DHT22;667;48.796;9.480;2024-01-25T01:35:34;12.30;72.60
1347;DHT22;667;48.796;9.480;2024-01-25T01:38:00;12.30;72.60
1347;DHT22;667;48.796;9.480;2024-01-25T01:40:25;12.20;72.60
1347;DHT22;667;48.796;9.480;2024-01-25T01:42:51;12.20;72.60
1347;DHT22;667;48.796;9.480;2024-01-25T01:45:16;12.20;72.60
1347;DHT22;667;48.796;9.480;2024-01-25T01:47:42;12.20;72.60
1347;DHT22;667;48.796;9.480;2024-01-25T01:50:09;12.30;72.80
1347;DHT22;667;48.796;9.480;2024-01-25T01:52:35;12.30;72.80
1347;DHT22;667;48.796;9.480;2024-01-25T01:55:01;12.30;72.80
1347;DHT22;667;48.796;9.480;2024-01-25T01:57:27;12.30;72.80
1347;DHT22;667;48.796;9.480;2024-01-25T01:59:53;12.30;72.80
1347;DHT22;667;48.796;9.480;2024-01-25T02:02:19;12.30;72.80
1347;DHT22;667;48.796;9.480;2024-01-25T02:04:44;12.30;72.80
1347;DHT22;667;48.796;9.480;2024-01-25T02:07:11;12.30;72.80
1347;DHT22;667;48.796;9.480;2024-01-25T02:09:36;12.30;72.70
1347;DHT22;667;48.796;9.480;2024-01-25T02:12:02;12.30;72.60
1347;DHT22;667;48.796;9.480;2024-01-25T02:14:28;12.30;72.50
1347;DHT22;667;48.796;9.480;2024-01-25T02:16:54;12.30;72.50
1347;DHT22;667;48.796;9.480;2024-01-25T02:19:19;12.30;72.50
1347;DHT22;667;48.796;9.480;2024-01-25T02:21:45;12.30;72.50
1347;DHT22;667;48.796;9.480;2024-01-25T02:24:10;12.30;72.50
1347;DHT22;667;48.796;9.480;2024-01-25T02:26:36;12.30;72.50
1347;DHT22;667;48.796;9.480;2024-01-25T02:29:01;12.30;72.60
1347;DHT22;667;48.796;9.480;2024-01-25T02:31:30;12.20;72.50
1347;DHT22;667;48.796;9.480;2024-01-25T02:33:55;12.20;72.60
1347;DHT22;667;48.796;9.480;2024-01-25T02:36:24;12.20;72.60
1347;DHT22;667;48.796;9.480;2024-01-25T02:38:50;12.20;72.70
1347;DHT22;667;48.796;9.480;2024-01-25T02:41:15;12.20;72.70
1347;DHT22;667;48.796;9.480;2024-01-25T02:43:41;12.20;72.80
1347;DHT22;667;48.796;9.480;2024-01-25T02:46:07;12.30;72.90
1347;DHT22;667;48.796;9.480;2024-01-25T02:48:33;12.30;73.00
1347;DHT22;667;48.796;9.480;2024-01-25T02:50:58;12.20;72.90
1347;DHT22;667;48.796;9.480;2024-01-25T02:53:24;12.20;72.90
1347;DHT22;667;48.796;9.480;2024-01-25T02:55:50;12.20;72.90
1347;DHT22;667;48.796;9.480;2024-01-25T02:58:15;12.30;73.00
1347;DHT22;667;48.796;9.480;2024-01-25T03:00:41;12.20;72.90
1347;DHT22;667;48.796;9.480;2024-01-25T03:03:06;12.20;72.90
1347;DHT22;667;48.796;9.480;2024-01-25T03:05:32;12.20;72.90
1347;DHT22;667;48.796;9.480;2024-01-25T03:07:58;12.20;73.00
1347;DHT22;667;48.796;9.480;2024-01-25T03:10:24;12.20;73.20
1347;DHT22;667;48.796;9.480;2024-01-25T03:12:50;12.20;73.20
1347;DHT22;667;48.796;9.480;2024-01-25T03:15:15;12.20;73.20
1347;DHT22;667;48.796;9.480;2024-01-25T03:17:41;12.10;73.10
1347;DHT22;667;48.796;9.480;2024-01-25T03:20:07;12.10;73.20
1347;DHT22;667;48.796;9.480;2024-01-25T03:22:33;12.10;73.20
1347;DHT22;667;48.796;9.480;2024-01-25T03:24:59;12.10;73.30
1347;DHT22;667;48.796;9.480;2024-01-25T03:27:25;12.10;73.30
1347;DHT22;667;48.796;9.480;2024-01-25T03:29:50;12.00;73.90
1347;DHT22;667;48.796;9.480;2024-01-25T03:32:16;12.00;73.20
1347;DHT22;667;48.796;9.480;2024-01-25T03:34:41;12.00;73.20
1347;DHT22;667;48.796;9.480;2024-01-25T03:37:07;12.00;73.20
1347;DHT22;667;48.796;9.480;2024-01-25T03:39:33;12.00;73.20
1347;DHT22;667;48.796;9.480;2024-01-25T03:41:58;11.90;73.10
1347;DHT22;667;48.796;9.480;2024-01-25T03:44:24;12.00;73.20
1347;DHT22;667;48.796;9.480;2024-01-25T03:46:50;11.90;73.10
1347;DHT22;667;48.796;9.480;2024-01-25T03:49:15;11.90;73.10
1347;DHT22;667;48.796;9.480;2024-01-25T03:51:41;11.90;73.10
1347;DHT22;667;48.796;9.480;2024-01-25T03:54:08;11.90;73.10
1347;DHT22;667;48.796;9.480;2024-01-25T03:56:33;11.90;73.10
1347;DHT22;667;48.796;9.480;2024-01-25T03:58:59;11.90;73.20
1347;DHT22;667;48.796;9.480;2024-01-25T04:01:24;11.90;73.30
1347;DHT22;667;48.796;9.480;2024-01-25T04:03:50;11.90;73.40
1347;DHT22;667;48.796;9.480;2024-01-25T04:06:16;11.90;73.40
1347;DHT22;667;48.796;9.480;2024-01-25T04:08:41;11.90;73.50
1347;DHT22;667;48.796;9.480;2024-01-25T04:11:07;11.90;73.60
1347;DHT22;667;48.796;9.480;2024-01-25T04:13:35;11.80;73.50
1347;DHT22;667;48.796;9.480;2024-01-25T04:16:00;11.80;73.60
1347;DHT22;667;48.796;9.480;2024-01-25T04:18:26;11.80;73.60
1347;DHT22;667;48.796;9.480;2024-01-25T04:20:51;11.80;73.60
1347;DHT22;667;48.796;9.480;2024-01-25T04:23:17;11.80;73.70
1347;DHT22;667;48.796;9.480;2024-01-25T04:25:43;11.80;73.70
1347;DHT22;667;48.796;9.480;2024-01-25T04:28:08;11.80;73.80
1347;DHT22;667;48.796;9.480;2024-01-25T04:30:34;11.80;73.50
1347;DHT22;667;48.796;9.480;2024-01-25T04:32:59;11.80;73.50
1347;DHT22;667;48.796;9.480;2024-01-25T04:35:25;11.80;73.40
1347;DHT22;667;48.796;9.480;2024-01-25T04:37:50;11.80;73.40
1347;DHT22;667;48.796;9.480;2024-01-25T04:40:16;11.70;73.20
1347;DHT22;667;48.796;9.480;2024-01-25T04:42:41;11.80;73.30
1347;DHT22;667;48.796;9.480;2024-01-25T04:45:07;11.70;73.20
1347;DHT22;667;48.796;9.480;2024-01-25T04:47:33;11.70;73.10
1347;DHT22;667;48.796;9.480;2024-01-25T04:49:58;11.80;73.10
1347;DHT22;667;48.796;9.480;2024-01-25T04:52:25;11.70;72.90
1347;DHT22;667;48.796;9.480;2024-01-25T04:54:50;11.70;72.80
1347;DHT22;667;48.796;9.480;2024-01-25T04:57:16;11.70;72.70
1347;DHT22;667;48.796;9.480;2024-01-25T04:59:41;11.70;72.70
1347;DHT22;667;48.796;9.480;2024-01-25T05:02:07;11.70;72.60
1347;DHT22;667;48.796;9.480;2024-01-25T05:04:32;11.70;72.50
1347;DHT22;667;48.796;9.480;2024-01-25T05:06:59;11.70;72.60
1347;DHT22;667;48.796;9.480;2024-01-25T05:09:25;11.70;72.50
1347;DHT22;667;48.796;9.480;2024-01-25T05:11:51;11.70;72.50
1347;DHT22;667;48.796;9.480;2024-01-25T05:14:16;11.70;72.50
1347;DHT22;667;48.796;9.480;2024-01-25T05:16:42;11.60;72.20
1347;DHT22;667;48.796;9.480;2024-01-25T05:19:07;11.60;72.10
1347;DHT22;667;48.796;9.480;2024-01-25T05:21:33;11.60;72.10
1347;DHT22;667;48.796;9.480;2024-01-25T05:23:58;11.60;72.00
1347;DHT22;667;48.796;9.480;2024-01-25T05:26:25;11.60;71.90
1347;DHT22;667;48.796;9.480;2024-01-25T05:28:50;11.60;71.90
1347;DHT22;667;48.796;9.480;2024-01-25T05:31:16;11.50;71.70
1347;DHT22;667;48.796;9.480;2024-01-25T05:33:42;11.50;71.70
1347;DHT22;667;48.796;9.480;2024-01-25T05:36:08;11.50;71.70
1347;DHT22;667;48.796;9.480;2024-01-25T05:38:34;11.40;71.60
1347;DHT22;667;48.796;9.480;2024-01-25T05:40:59;11.40;71.60
1347;DHT22;667;48.796;9.480;2024-01-25T05:43:25;11.40;71.50
1347;DHT22;667;48.796;9.480;2024-01-25T05:45:51;11.40;71.60
1347;DHT22;667;48.796;9.480;2024-01-25T05:48:16;11.40;71.70
1347;DHT22;667;48.796;9.480;2024-01-25T05:50:42;11.40;71.50
1347;DHT22;667;48.796;9.480;2024-01-25T05:53:07;11.40;71.60
1347;DHT22;667;48.796;9.480;2024-01-25T05:55:33;11.40;71.60
1347;DHT22;667;48.796;9.480;2024-01-25T05:57:58;11.40;71.70
1347;DHT22;667;48.796;9.480;2024-01-25T06:00:24;11.30;71.70
1347;DHT22;667;48.796;9.480;2024-01-25T06:02:50;11.30;71.60
1347;DHT22;667;48.796;9.480;2024-01-25T06:05:15;11.30;71.60
1347;DHT22;667;48.796;9.480;2024-01-25T06:07:41;11.20;71.90
1347;DHT22;667;48.796;9.480;2024-01-25T06:10:07;11.20;71.50
1347;DHT22;667;48.796;9.480;2024-01-25T06:12:33;11.20;71.60
1347;DHT22;667;48.796;9.480;2024-01-25T06:14:58;11.10;71.40
1347;DHT22;667;48.796;9.480;2024-01-25T06:17:24;11.10;71.40
1347;DHT22;667;48.796;9.480;2024-01-25T06:19:49;11.00;71.40
1347;DHT22;667;48.796;9.480;2024-01-25T06:22:15;10.90;71.40
1347;DHT22;667;48.796;9.480;2024-01-25T06:24:42;10.90;71.30
1347;DHT22;667;48.796;9.480;2024-01-25T06:27:09;10.80;71.00
1347;DHT22;667;48.796;9.480;2024-01-25T06:29:35;10.70;70.80
1347;DHT22;667;48.796;9.480;2024-01-25T06:32:00;10.70;70.70
1347;DHT22;667;48.796;9.480;2024-01-25T06:34:26;10.50;70.70
1347;DHT22;667;48.796;9.480;2024-01-25T06:36:52;10.50;71.10
1347;DHT22;667;48.796;9.480;2024-01-25T06:39:17;10.40;71.20
1347;DHT22;667;48.796;9.480;2024-01-25T06:41:43;10.40;71.30
1347;DHT22;667;48.796;9.480;2024-01-25T06:44:08;10.30;71.20
1347;DHT22;667;48.796;9.480;2024-01-25T06:46:34;10.20;71.30
1347;DHT22;667;48.796;9.480;2024-01-25T06:49:00;10.20;71.30
1347;DHT22;667;48.796;9.480;2024-01-25T06:51:26;10.10;71.20
1347;DHT22;667;48.796;9.480;2024-01-25T06:53:51;10.10;71.40
1347;DHT22;667;48.796;9.480;2024-01-25T06:56:17;10.00;71.30
1347;DHT22;667;48.796;9.480;2024-01-25T06:58:42;9.90;72.40
1347;DHT22;667;48.796;9.480;2024-01-25T07:01:08;9.90;72.50
1347;DHT22;667;48.796;9.480;2024-01-25T07:03:33;9.90;72.60
1347;DHT22;667;48.796;9.480;2024-01-25T07:05:59;9.80;72.40
1347;DHT22;667;48.796;9.480;2024-01-25T07:08:24;9.70;72.10
1347;DHT22;667;48.796;9.480;2024-01-25T07:10:50;9.70;73.00
1347;DHT22;667;48.796;9.480;2024-01-25T07:13:16;9.60;72.30
1347;DHT22;667;48.796;9.480;2024-01-25T07:15:41;9.60;72.30
1347;DHT22;667;48.796;9.480;2024-01-25T07:18:07;9.50;72.60
1347;DHT22;667;48.796;9.480;2024-01-25T07:20:33;9.50;72.90
1347;DHT22;667;48.796;9.480;2024-01-25T07:22:59;9.40;73.10
1347;DHT22;667;48.796;9.480;2024-01-25T07:25:24;9.40;73.30
1347;DHT22;667;48.796;9.480;2024-01-25T07:27:50;9.30;73.60
1347;DHT22;667;48.796;9.480;2024-01-25T07:30:15;9.30;73.90
1347;DHT22;667;48.796;9.480;2024-01-25T07:32:41;9.20;73.90
1347;DHT22;667;48.796;9.480;2024-01-25T07:35:11;9.20;74.00
1347;DHT22;667;48.796;9.480;2024-01-25T07:37:37;9.20;74.10
1347;DHT22;667;48.796;9.480;2024-01-25T07:40:03;9.20;74.30
1347;DHT22;667;48.796;9.480;2024-01-25T07:42:29;9.20;74.50
1347;DHT22;667;48.796;9.480;2024-01-25T07:44:55;9.20;74.40
1347;DHT22;667;48.796;9.480;2024-01-25T07:47:20;9.20;74.40
1347;DHT22;667;48.796;9.480;2024-01-25T07:49:46;9.20;74.30
1347;DHT22;667;48.796;9.480;2024-01-25T07:52:11;9.20;74.30
1347;DHT22;667;48.796;9.480;2024-01-25T07:54:37;9.20;74.40
1347;DHT22;667;48.796;9.480;2024-01-25T07:57:02;9.20;74.80
1347;DHT22;667;48.796;9.480;2024-01-25T07:59:28;9.20;74.90
1347;DHT22;667;48.796;9.480;2024-01-25T08:01:54;9.20;74.90
1347;DHT22;667;48.796;9.480;2024-01-25T08:04:19;9.20;75.10
1347;DHT22;667;48.796;9.480;2024-01-25T08:06:45;9.30;75.50
1347;DHT22;667;48.796;9.480;2024-01-25T08:09:10;9.30;75.70
1347;DHT22;667;48.796;9.480;2024-01-25T08:11:36;9.40;76.60
1347;DHT22;667;48.796;9.480;2024-01-25T08:14:01;9.40;75.80
1347;DHT22;667;48.796;9.480;2024-01-25T08:16:29;9.40;75.80
1347;DHT22;667;48.796;9.480;2024-01-25T08:18:54;9.40;75.90
1347;DHT22;667;48.796;9.480;2024-01-25T08:21:20;9.40;76.00
1347;DHT22;667;48.796;9.480;2024-01-25T08:23:45;9.50;76.20
1347;DHT22;667;48.796;9.480;2024-01-25T08:26:11;9.50;76.50
1347;DHT22;667;48.796;9.480;2024-01-25T08:28:41;9.50;76.80
1347;DHT22;667;48.796;9.480;2024-01-25T08:31:08;9.60;76.90
1347;DHT22;667;48.796;9.480;2024-01-25T08:33:34;9.60;77.10
1347;DHT22;667;48.796;9.480;2024-01-25T08:36:00;9.70;77.30
1347;DHT22;667;48.796;9.480;2024-01-25T08:38:25;9.70;77.30
1347;DHT22;667;48.796;9.480;2024-01-25T08:40:51;9.80;77.50
1347;DHT22;667;48.796;9.480;2024-01-25T08:43:16;9.80;77.40
1347;DHT22;667;48.796;9.480;2024-01-25T08:45:43;9.90;77.50
1347;DHT22;667;48.796;9.480;2024-01-25T08:48:09;10.00;76.40
1347;DHT22;667;48.796;9.480;2024-01-25T08:50:35;10.10;76.40
1347;DHT22;667;48.796;9.480;2024-01-25T08:53:01;10.20;76.30
1347;DHT22;667;48.796;9.480;2024-01-25T08:55:27;10.30;76.30
1347;DHT22;667;48.796;9.480;2024-01-25T08:57:52;10.50;76.20
1347;DHT22;667;48.796;9.480;2024-01-25T09:00:18;10.60;76.20
1347;DHT22;667;48.796;9.480;2024-01-25T09:02:44;10.80;76.90
1347;DHT22;667;48.796;9.480;2024-01-25T09:05:10;11.30;77.10
1347;DHT22;667;48.796;9.480;2024-01-25T09:07:35;11.90;76.10
1347;DHT22;667;48.796;9.480;2024-01-25T09:10:01;12.90;75.00
1347;DHT22;667;48.796;9.480;2024-01-25T09:12:27;14.40;72.10
1347;DHT22;667;48.796;9.480;2024-01-25T09:14:52;16.00;67.70
1347;DHT22;667;48.796;9.480;2024-01-25T09:17:18;17.80;59.60
1347;DHT22;667;48.796;9.480;2024-01-25T09:19:50;17.90;59.20
1347;DHT22;667;48.796;9.480;2024-01-25T09:22:17;17.70;57.20
1347;DHT22;667;48.796;9.480;2024-01-25T09:24:44;18.00;57.80
1347;DHT22;667;48.796;9.480;2024-01-25T09:27:10;19.20;56.80
1347;DHT22;667;48.796;9.480;2024-01-25T09:29:36;20.40;54.60
1347;DHT22;667;48.796;9.480;2024-01-25T09:32:04;21.60;52.10
1347;DHT22;667;48.796;9.480;2024-01-25T09:34:29;22.70;49.80
1347;DHT22;667;48.796;9.480;2024-01-25T09:36:55;23.40;47.90
1347;DHT22;667;48.796;9.480;2024-01-25T09:39:21;24.40;44.60
1347;DHT22;667;48.796;9.480;2024-01-25T09:41:46;24.60;45.00
1347;DHT22;667;48.796;9.480;2024-01-25T09:44:12;25.10;43.60
1347;DHT22;667;48.796;9.480;2024-01-25T09:46:39;25.40;42.70
1347;DHT22;667;48.796;9.480;2024-01-25T09:49:07;25.40;41.90
1347;DHT22;667;48.796;9.480;2024-01-25T09:51:38;24.80;41.50
1347;DHT22;667;48.796;9.480;2024-01-25T09:54:05;23.60;42.30
1347;DHT22;667;48.796;9.480;2024-01-25T09:56:32;22.40;44.00
1347;DHT22;667;48.796;9.480;2024-01-25T09:58:58;22.50;45.00
1347;DHT22;667;48.796;9.480;2024-01-25T10:01:24;22.60;44.50
1347;DHT22;667;48.796;9.480;2024-01-25T10:03:50;22.10;44.60
1347;DHT22;667;48.796;9.480;2024-01-25T10:06:16;21.60;45.10
1347;DHT22;667;48.796;9.480;2024-01-25T10:08:42;21.40;46.00
1347;DHT22;667;48.796;9.480;2024-01-25T10:11:08;21.90;46.60
1347;DHT22;667;48.796;9.480;2024-01-25T10:13:47;21.70;45.50
1347;DHT22;667;48.796;9.480;2024-01-25T10:16:13;20.70;45.80
1347;DHT22;667;48.796;9.480;2024-01-25T10:18:41;19.70;47.10
1347;DHT22;667;48.796;9.480;2024-01-25T10:21:12;19.10;48.50
1347;DHT22;667;48.796;9.480;2024-01-25T10:23:38;18.40;49.40
1347;DHT22;667;48.796;9.480;2024-01-25T10:26:04;17.70;50.30
1347;DHT22;667;48.796;9.480;2024-01-25T10:28:30;17.10;51.10
1347;DHT22;667;48.796;9.480;2024-01-25T10:31:01;17.00;52.40
1347;DHT22;667;48.796;9.480;2024-01-25T10:33:28;16.60;52.60
1347;DHT22;667;48.796;9.480;2024-01-25T10:35:57;16.20;53.00
1347;DHT22;667;48.796;9.480;2024-01-25T10:38:35;15.80;53.70
1347;DHT22;667;48.796;9.480;2024-01-25T10:41:02;15.50;54.30
1347;DHT22;667;48.796;9.480;2024-01-25T10:43:28;15.20;54.80
1347;DHT22;667;48.796;9.480;2024-01-25T10:45:57;14.90;55.30
1347;DHT22;667;48.796;9.480;2024-01-25T10:48:25;14.60;55.90
1347;DHT22;667;48.796;9.480;2024-01-25T10:50:53;14.40;56.50
1347;DHT22;667;48.796;9.480;2024-01-25T10:53:20;14.20;57.10
1347;DHT22;667;48.796;9.480;2024-01-25T10:55:46;14.00;57.60
1347;DHT22;667;48.796;9.480;2024-01-25T10:58:13;13.90;58.00
1347;DHT22;667;48.796;9.480;2024-01-25T11:00:39;13.80;58.30
1347;DHT22;667;48.796;9.480;2024-01-25T11:03:06;13.60;58.60
1347;DHT22;667;48.796;9.480;2024-01-25T11:05:32;13.60;59.10
1347;DHT22;667;48.796;9.480;2024-01-25T11:07:57;13.50;59.50
1347;DHT22;667;48.796;9.480;2024-01-25T11:10:27;13.40;60.20
1347;DHT22;667;48.796;9.480;2024-01-25T11:12:57;13.40;60.10
1347;DHT22;667;48.796;9.480;2024-01-25T11:15:35;13.40;60.60
1347;DHT22;667;48.796;9.480;2024-01-25T11:18:07;13.40;60.70
1347;DHT22;667;48.796;9.480;2024-01-25T11:20:34;13.50;61.20
1347;DHT22;667;48.796;9.480;2024-01-25T11:23:05;13.60;61.00
1347;DHT22;667;48.796;9.480;2024-01-25T11:25:36;13.60;60.70
1347;DHT22;667;48.796;9.480;2024-01-25T11:28:03;13.60;60.70
1347;DHT22;667;48.796;9.480;2024-01-25T11:30:32;13.60;60.60
1347;DHT22;667;48.796;9.480;2024-01-25T11:32:57;13.70;60.90
1347;DHT22;667;48.796;9.480;2024-01-25T11:35:23;13.80;61.10
1347;DHT22;667;48.796;9.480;2024-01-25T11:37:49;13.80;60.80
1347;DHT22;667;48.796;9.480;2024-01-25T11:40:17;13.90;61.10
1347;DHT22;667;48.796;9.480;2024-01-25T11:42:45;13.90;61.00
1347;DHT22;667;48.796;9.480;2024-01-25T11:45:12;13.90;60.60
1347;DHT22;667;48.796;9.480;2024-01-25T11:47:40;13.80;60.30
1347;DHT22;667;48.796;9.480;2024-01-25T11:50:07;13.80;60.30
1347;DHT22;667;48.796;9.480;2024-01-25T11:52:33;13.80;60.40
1347;DHT22;667;48.796;9.480;2024-01-25T11:55:09;13.80;61.10
1347;DHT22;667;48.796;9.480;2024-01-25T11:57:37;13.80;60.10
1347;DHT22;667;48.796;9.480;2024-01-25T12:00:04;13.80;60.00
1347;DHT22;667;48.796;9.480;2024-01-25T12:02:31;13.80;59.80
1347;DHT22;667;48.796;9.480;2024-01-25T12:04:57;13.80;60.60
1347;DHT22;667;48.796;9.480;2024-01-25T12:07:23;13.80;59.80
1347;DHT22;667;48.796;9.480;2024-01-25T12:10:04;13.90;59.80
1347;DHT22;667;48.796;9.480;2024-01-25T12:12:30;13.90;59.80
1347;DHT22;667;48.796;9.480;2024-01-25T12:15:04;13.90;59.80
1347;DHT22;667;48.796;9.480;2024-01-25T12:17:31;13.90;60.00
1347;DHT22;667;48.796;9.480;2024-01-25T12:19:57;14.00;60.10
1347;DHT22;667;48.796;9.480;2024-01-25T12:22:27;14.00;59.80
1347;DHT22;667;48.796;9.480;2024-01-25T12:24:54;14.10;59.70
1347;DHT22;667;48.796;9.480;2024-01-25T12:27:24;14.10;59.50
1347;DHT22;667;48.796;9.480;2024-01-25T12:29:53;14.10;59.30
1347;DHT22;667;48.796;9.480;2024-01-25T12:32:20;14.10;59.30
1347;DHT22;667;48.796;9.480;2024-01-25T12:34:59;14.10;59.30
1347;DHT22;667;48.796;9.480;2024-01-25T12:37:28;14.10;59.40
1347;DHT22;667;48.796;9.480;2024-01-25T12:39:54;14.10;59.70
1347;DHT22;667;48.796;9.480;2024-01-25T12:42:21;14.10;59.70
1347;DHT22;667;48.796;9.480;2024-01-25T12:44:47;14.10;59.50
1347;DHT22;667;48.796;9.480;2024-01-25T12:47:13;14.00;59.40
1347;DHT22;667;48.796;9.480;2024-01-25T12:49:45;14.00;59.50
1347;DHT22;667;48.796;9.480;2024-01-25T12:52:12;13.90;59.60
1347;DHT22;667;48.796;9.480;2024-01-25T12:54:38;13.90;59.70
1347;DHT22;667;48.796;9.480;2024-01-25T12:57:05;13.80;59.60
1347;DHT22;667;48.796;9.480;2024-01-25T12:59:32;13.70;59.50
1347;DHT22;667;48.796;9.480;2024-01-25T13:01:57;13.70;59.60
1347;DHT22;667;48.796;9.480;2024-01-25T13:04:23;13.60;59.70
1347;DHT22;667;48.796;9.480;2024-01-25T13:06:52;13.60;59.70
1347;DHT22;667;48.796;9.480;2024-01-25T13:09:18;13.50;59.70
1347;DHT22;667;48.796;9.480;2024-01-25T13:11:43;13.50;59.90
1347;DHT22;667;48.796;9.480;2024-01-25T13:14:09;13.50;60.10
1347;DHT22;667;48.796;9.480;2024-01-25T13:16:34;13.40;60.20
1347;DHT22;667;48.796;9.480;2024-01-25T13:19:00;13.40;60.40
1347;DHT22;667;48.796;9.480;2024-01-25T13:21:26;13.40;60.40
1347;DHT22;667;48.796;9.480;2024-01-25T13:23:51;13.40;60.40
1347;DHT22;667;48.796;9.480;2024-01-25T13:26:17;13.40;60.40
1347;DHT22;667;48.796;9.480;2024-01-25T13:28:42;13.40;60.40
1347;DHT22;667;48.796;9.480;2024-01-25T13:31:08;13.40;60.30
1347;DHT22;667;48.796;9.480;2024-01-25T13:33:33;13.40;60.20
1347;DHT22;667;48.796;9.480;2024-01-25T13:35:59;13.40;60.10
1347;DHT22;667;48.796;9.480;2024-01-25T13:38:24;13.30;60.60
1347;DHT22;667;48.796;9.480;2024-01-25T13:40:50;13.30;59.80
1347;DHT22;667;48.796;9.480;2024-01-25T13:43:16;13.30;59.70
1347;DHT22;667;48.796;9.480;2024-01-25T13:45:42;13.30;59.90
1347;DHT22;667;48.796;9.480;2024-01-25T13:48:08;13.30;60.00
1347;DHT22;667;48.796;9.480;2024-01-25T13:50:33;13.30;60.00
1347;DHT22;667;48.796;9.480;2024-01-25T13:52:59;13.30;60.10
1347;DHT22;667;48.796;9.480;2024-01-25T13:55:24;13.30;60.20
1347;DHT22;667;48.796;9.480;2024-01-25T13:57:50;13.30;60.20
1347;DHT22;667;48.796;9.480;2024-01-25T14:00:16;13.30;60.30
1347;DHT22;667;48.796;9.480;2024-01-25T14:02:41;13.30;60.40
1347;DHT22;667;48.796;9.480;2024-01-25T14:05:11;13.30;60.30
1347;DHT22;667;48.796;9.480;2024-01-25T14:07:37;13.30;60.10
1347;DHT22;667;48.796;9.480;2024-01-25T14:10:03;13.30;60.10
1347;DHT22;667;48.796;9.480;2024-01-25T14:12:28;13.30;60.00
1347;DHT22;667;48.796;9.480;2024-01-25T14:14:54;13.30;59.90
1347;DHT22;667;48.796;9.480;2024-01-25T14:17:20;13.30;60.00
1347;DHT22;667;48.796;9.480;2024-01-25T14:19:47;13.30;60.00
1347;DHT22;667;48.796;9.480;2024-01-25T14:22:12;13.20;60.00
1347;DHT22;667;48.796;9.480;2024-01-25T14:24:38;13.20;60.10
1347;DHT22;667;48.796;9.480;2024-01-25T14:27:04;13.20;60.10
1347;DHT22;667;48.796;9.480;2024-01-25T14:29:30;13.20;60.30
1347;DHT22;667;48.796;9.480;2024-01-25T14:31:58;13.20;60.30
1347;DHT22;667;48.796;9.480;2024-01-25T14:34:24;13.20;60.30
1347;DHT22;667;48.796;9.480;2024-01-25T14:36:49;13.20;60.40
1347;DHT22;667;48.796;9.480;2024-01-25T14:39:17;13.20;60.30
1347;DHT22;667;48.796;9.480;2024-01-25T14:41:44;13.20;60.30
1347;DHT22;667;48.796;9.480;2024-01-25T14:44:10;13.20;60.30
1347;DHT22;667;48.796;9.480;2024-01-25T14:46:35;13.10;60.30
1347;DHT22;667;48.796;9.480;2024-01-25T14:49:02;13.10;60.30
1347;DHT22;667;48.796;9.480;2024-01-25T14:51:28;13.10;60.30
1347;DHT22;667;48.796;9.480;2024-01-25T14:53:53;13.10;60.30
1347;DHT22;667;48.796;9.480;2024-01-25T14:56:19;13.10;60.40
1347;DHT22;667;48.796;9.480;2024-01-25T14:58:44;13.00;60.50
1347;DHT22;667;48.796;9.480;2024-01-25T15:01:14;13.00;60.70
1347;DHT22;667;48.796;9.480;2024-01-25T15:03:45;13.00;60.90
1347;DHT22;667;48.796;9.480;2024-01-25T15:06:11;13.00;61.20
1347;DHT22;667;48.796;9.480;2024-01-25T15:08:37;13.00;61.90
1347;DHT22;667;48.796;9.480;2024-01-25T15:11:04;12.90;62.40
1347;DHT22;667;48.796;9.480;2024-01-25T15:13:30;12.90;63.10
1347;DHT22;667;48.796;9.480;2024-01-25T15:15:55;12.80;63.50
1347;DHT22;667;48.796;9.480;2024-01-25T15:18:21;12.70;64.00
1347;DHT22;667;48.796;9.480;2024-01-25T15:20:47;12.60;64.30
1347;DHT22;667;48.796;9.480;2024-01-25T15:23:13;12.60;64.80
1347;DHT22;667;48.796;9.480;2024-01-25T15:25:39;12.50;65.10
1347;DHT22;667;48.796;9.480;2024-01-25T15:28:05;12.50;65.50
1347;DHT22;667;48.796;9.480;2024-01-25T15:30:30;12.40;65.80
1347;DHT22;667;48.796;9.480;2024-01-25T15:32:56;12.30;66.10
1347;DHT22;667;48.796;9.480;2024-01-25T15:35:22;12.20;66.30
1347;DHT22;667;48.796;9.480;2024-01-25T15:37:47;12.10;66.60
1347;DHT22;667;48.796;9.480;2024-01-25T15:40:13;12.10;67.60
1347;DHT22;667;48.796;9.480;2024-01-25T15:42:41;12.00;67.20
1347;DHT22;667;48.796;9.480;2024-01-25T15:45:08;11.90;67.30
1347;DHT22;667;48.796;9.480;2024-01-25T15:47:34;11.80;67.30
1347;DHT22;667;48.796;9.480;2024-01-25T15:50:00;11.80;67.60
1347;DHT22;667;48.796;9.480;2024-01-25T15:52:25;11.70;67.70
1347;DHT22;667;48.796;9.480;2024-01-25T15:54:51;11.70;67.80
1347;DHT22;667;48.796;9.480;2024-01-25T15:57:17;11.70;68.20
1347;DHT22;667;48.796;9.480;2024-01-25T15:59:42;11.70;68.20
1347;DHT22;667;48.796;9.480;2024-01-25T16:02:08;11.60;68.30
1347;DHT22;667;48.796;9.480;2024-01-25T16:04:33;11.60;68.40
1347;DHT22;667;48.796;9.480;2024-01-25T16:06:59;11.60;68.60
1347;DHT22;667;48.796;9.480;2024-01-25T16:09:25;11.50;68.70
1347;DHT22;667;48.796;9.480;2024-01-25T16:11:51;11.50;68.90